Time;durP1;ratioP1;P1;durP2;ratioP2;P2;SDS_P1;SDS_P2;PMS_P1;PMS_P2;Temp;Humidity;BMP_temperature;BMP_pressure;BME280_temperature;BME280_humidity;BME280_pressure;Samples;Min_cycle;Max_cycle;Signal;HPM_P1;HPM_P2
2021/04/07 00:00:37;;;;;;;8.00;5.00;;;;;;;1.43;68.81;95807.45;1688748;84;21559;-82
2021/04/07 00:03:08;;;;;;;9.45;5.70;;;;;;;1.84;68.71;95855.88;1689794;84;21173;-85
2021/04/07 00:05:43;;;;;;;9.60;5.42;;;;;;;1.82;69.09;95873.81;1690402;84;21184;-82
2021/04/07 00:08:11;;;;;;;7.70;5.80;;;;;;;1.84;69.34;95885.77;1688601;83;21331;-83
2021/04/07 00:10:44;;;;;;;8.03;5.80;;;;;;;1.86;69.00;95902.09;1687377;84;21184;-81
2021/04/07 00:13:14;;;;;;;7.42;4.87;;;;;;;1.85;68.80;95900.42;1686470;84;21376;-82
2021/04/07 00:15:42;;;;;;;7.75;5.30;;;;;;;1.86;68.77;95890.85;1686283;83;21350;-81
2021/04/07 00:18:10;;;;;;;10.53;5.65;;;;;;;1.82;68.42;95887.63;1674646;84;21133;-80
2021/04/07 00:20:39;;;;;;;8.65;5.10;;;;;;;1.82;68.54;95889.41;1678305;84;21176;-82
2021/04/07 00:23:06;;;;;;;8.33;4.85;;;;;;;1.81;69.27;95883.83;1680913;84;21192;-83
2021/04/07 00:25:34;;;;;;;12.13;5.00;;;;;;;1.77;68.60;95875.41;1660532;86;21188;-82
2021/04/07 00:28:05;;;;;;;7.72;4.95;;;;;;;1.77;68.48;95885.80;1660636;86;21197;-81
2021/04/07 00:30:35;;;;;;;9.60;5.10;;;;;;;1.79;68.51;95894.34;1658826;86;21274;-82
2021/04/07 00:33:05;;;;;;;7.97;5.10;;;;;;;1.77;68.29;95882.35;1659486;86;21184;-83
2021/04/07 00:35:34;;;;;;;5.75;4.33;;;;;;;1.74;68.32;95874.30;1650367;86;21183;-82
2021/04/07 00:38:01;;;;;;;7.17;4.55;;;;;;;1.77;68.31;95871.51;1686240;84;21145;-82
2021/04/07 00:40:29;;;;;;;8.30;4.35;;;;;;;1.80;68.17;95868.72;1688184;84;21530;-81
2021/04/07 00:42:56;;;;;;;7.42;4.33;;;;;;;1.80;68.35;95873.07;1689149;84;21209;-81
2021/04/07 00:45:23;;;;;;;6.30;4.37;;;;;;;1.79;68.12;95868.35;1668544;85;21140;-81
2021/04/07 00:47:53;;;;;;;8.98;4.22;;;;;;;1.79;68.10;95864.45;1659501;86;21341;-81
2021/04/07 00:50:24;;;;;;;5.72;4.20;;;;;;;1.78;68.05;95861.48;1661197;85;21196;-83
2021/04/07 00:52:53;;;;;;;8.33;5.00;;;;;;;1.81;68.12;95856.55;1660738;85;21274;-82
2021/04/07 00:55:27;;;;;;;9.88;5.25;;;;;;;1.82;68.04;95854.32;1655143;87;21246;-81
2021/04/07 00:57:56;;;;;;;9.15;4.42;;;;;;;1.82;67.99;95857.73;1687821;84;21187;-84
2021/04/07 01:00:24;;;;;;;8.15;4.22;;;;;;;1.81;67.52;95863.05;1687106;84;21287;-82
2021/04/07 01:02:55;;;;;;;6.65;4.50;;;;;;;1.78;67.60;95868.44;1687183;84;21609;-81
2021/04/07 01:05:28;;;;;;;6.92;4.50;;;;;;;1.78;67.52;95872.33;1649829;86;21183;-84
2021/04/07 01:07:58;;;;;;;7.08;4.03;;;;;;;1.77;67.42;95868.91;1630347;87;21310;-80
2021/04/07 01:10:26;;;;;;;5.53;4.15;;;;;;;1.73;67.18;95872.63;1659875;83;21190;-82
2021/04/07 01:12:55;;;;;;;6.30;3.85;;;;;;;1.72;67.32;95877.45;1630412;88;21191;-83
2021/04/07 01:15:23;;;;;;;10.60;4.75;;;;;;;1.71;67.26;95877.93;1684329;84;21316;-81
2021/04/07 01:17:50;;;;;;;7.50;4.25;;;;;;;1.71;67.12;95882.31;1685068;84;21176;-82
2021/04/07 01:20:21;;;;;;;6.53;4.17;;;;;;;1.74;67.27;95878.19;1680510;84;21215;-81
2021/04/07 01:22:56;;;;;;;8.30;4.55;;;;;;;1.73;67.15;95876.52;1686542;84;21132;-80
2021/04/07 01:25:24;;;;;;;7.03;5.00;;;;;;;1.79;67.37;95885.24;1670124;85;21145;-82
2021/04/07 01:27:51;;;;;;;7.12;4.20;;;;;;;1.81;67.09;95891.63;1683206;84;21164;-79
2021/04/07 01:30:21;;;;;;;7.83;4.58;;;;;;;1.80;66.90;95890.81;1629758;88;21201;-84
2021/04/07 01:32:48;;;;;;;6.05;4.25;;;;;;;1.82;66.79;95885.02;1619613;89;21197;-82
2021/04/07 01:35:18;;;;;;;8.90;4.10;;;;;;;1.85;66.70;95884.84;1625782;87;21197;-81
2021/04/07 01:37:46;;;;;;;6.80;3.77;;;;;;;1.85;66.62;95895.23;1622604;87;21349;-80
2021/04/07 01:40:16;;;;;;;6.75;4.05;;;;;;;1.86;66.45;95908.59;1631786;87;21217;-82
2021/04/07 01:42:46;;;;;;;10.10;4.70;;;;;;;1.82;66.33;95917.51;1603346;87;21635;-79
2021/04/07 01:45:14;;;;;;;9.48;4.60;;;;;;;1.73;65.98;95912.08;1656738;85;21152;-81
2021/04/07 01:47:44;;;;;;;7.05;4.30;;;;;;;1.70;65.89;95918.31;1656818;85;21180;-82
2021/04/07 01:50:11;;;;;;;9.50;4.40;;;;;;;1.71;65.95;95918.68;1663284;84;21180;-80
2021/04/07 01:52:39;;;;;;;8.33;3.62;;;;;;;1.70;65.87;95911.33;1667943;85;21168;-82
2021/04/07 01:55:23;;;;;;;9.08;4.35;;;;;;;1.76;65.81;95916.61;1832888;77;24697;-82
2021/04/07 01:57:50;;;;;;;10.15;4.50;;;;;;;1.74;65.82;95915.86;1831178;78;21162;-81
2021/04/07 02:00:19;;;;;;;8.13;3.60;;;;;;;1.77;65.65;95917.43;1831726;78;21274;-81
2021/04/07 02:02:46;;;;;;;5.58;4.22;;;;;;;1.79;65.48;95915.13;1831583;78;21257;-82
2021/04/07 02:05:15;;;;;;;5.65;3.70;;;;;;;1.80;65.14;95909.45;1831436;78;21143;-81
2021/04/07 02:07:43;;;;;;;5.55;3.47;;;;;;;1.82;65.14;95917.98;1831288;78;21270;-82
2021/04/07 02:10:12;;;;;;;9.65;4.55;;;;;;;1.82;65.03;95913.61;1831437;78;21273;-80
2021/04/07 02:12:39;;;;;;;6.45;4.25;;;;;;;1.85;65.03;95908.23;1817816;78;21143;-81
2021/04/07 02:15:15;;;;;;;9.18;4.00;;;;;;;1.86;64.89;95906.44;1766894;81;21182;-82
2021/04/07 02:17:45;;;;;;;5.15;3.52;;;;;;;1.85;64.75;95908.70;1761139;81;21281;-82
2021/04/07 02:20:15;;;;;;;8.23;3.95;;;;;;;1.84;64.85;95902.66;1790852;80;21163;-81
2021/04/07 02:22:42;;;;;;;7.35;4.08;;;;;;;1.81;64.99;95908.04;1776143;81;21604;-81
2021/04/07 02:25:12;;;;;;;6.00;3.83;;;;;;;1.78;65.13;95916.50;1768840;81;21557;-80
2021/04/07 02:27:40;;;;;;;6.50;4.47;;;;;;;1.71;65.36;95913.48;1745567;81;21159;-80
2021/04/07 02:30:12;;;;;;;5.80;4.00;;;;;;;1.67;65.65;95922.39;1758735;82;21163;-80
2021/04/07 02:32:40;;;;;;;8.33;4.15;;;;;;;1.62;65.75;95925.28;1759425;82;21124;-83
2021/04/07 02:35:09;;;;;;;9.03;4.55;;;;;;;1.56;65.92;95925.20;1785421;80;21137;-83
2021/04/07 02:37:36;;;;;;;7.80;4.20;;;;;;;1.53;66.49;95920.19;1791931;80;21133;-83
2021/04/07 02:40:05;;;;;;;7.03;4.83;;;;;;;1.49;66.12;95910.94;1758446;80;21184;-82
2021/04/07 02:42:32;;;;;;;7.72;4.50;;;;;;;1.45;66.25;95909.92;1747137;82;21147;-83
2021/04/07 02:45:00;;;;;;;10.03;4.60;;;;;;;1.43;66.60;95911.33;1746657;82;21273;-83
2021/04/07 02:47:27;;;;;;;8.05;4.50;;;;;;;1.38;66.39;95902.98;1746775;82;21324;-83
2021/04/07 02:49:54;;;;;;;7.22;4.65;;;;;;;1.33;66.60;95900.66;1747211;82;21151;-82
2021/04/07 02:52:22;;;;;;;8.10;4.97;;;;;;;1.33;67.01;95899.84;1746997;82;21136;-82
2021/04/07 02:54:49;;;;;;;9.85;4.42;;;;;;;1.32;67.51;95883.90;1741031;82;21321;-80
2021/04/07 02:57:16;;;;;;;8.88;5.22;;;;;;;1.29;67.09;95873.70;1738905;83;21147;-82
2021/04/07 02:59:44;;;;;;;5.80;4.03;;;;;;;1.29;67.37;95866.75;1738851;83;21266;-82
2021/04/07 03:02:11;;;;;;;9.00;4.42;;;;;;;1.31;67.86;95896.50;1738980;83;21983;-82
2021/04/07 03:04:40;;;;;;;8.18;4.87;;;;;;;1.27;67.22;95912.74;1738687;83;21285;-80
2021/04/07 03:07:07;;;;;;;8.60;4.60;;;;;;;1.29;67.40;95909.59;1730936;83;21267;-83
2021/04/07 03:09:34;;;;;;;7.53;5.22;;;;;;;1.29;67.12;95900.51;1738144;83;21293;-83
2021/04/07 03:12:02;;;;;;;9.58;4.40;;;;;;;1.25;67.15;95911.52;1738148;83;21171;-82
2021/04/07 03:14:29;;;;;;;9.10;5.12;;;;;;;1.26;67.29;95924.05;1737978;83;21274;-80
2021/04/07 03:16:58;;;;;;;8.40;4.53;;;;;;;1.25;67.22;95914.12;1737869;83;21285;-81
2021/04/07 03:19:26;;;;;;;8.95;4.40;;;;;;;1.24;67.30;95909.88;1738074;83;21297;-82
2021/04/07 03:21:53;;;;;;;7.65;5.15;;;;;;;1.15;66.96;95897.47;1737939;83;21159;-82
2021/04/07 03:24:20;;;;;;;9.98;5.28;;;;;;;1.12;67.26;95893.75;1738233;83;21157;-83
2021/04/07 03:26:47;;;;;;;8.80;5.20;;;;;;;1.14;67.31;95902.28;1738149;83;21168;-80
2021/04/07 03:29:15;;;;;;;6.85;4.83;;;;;;;1.15;67.52;95909.59;1737774;83;21181;-82
2021/04/07 03:31:43;;;;;;;7.42;4.70;;;;;;;1.13;67.37;95904.51;1738001;83;21159;-82
2021/04/07 03:34:11;;;;;;;10.53;5.50;;;;;;;1.11;67.00;95908.95;1738028;83;21163;-81
2021/04/07 03:36:38;;;;;;;10.93;4.10;;;;;;;1.09;66.99;95915.99;1738290;83;21175;-81
2021/04/07 03:39:05;;;;;;;6.20;4.73;;;;;;;1.06;66.80;95913.61;1738174;81;21297;-83
2021/04/07 03:41:33;;;;;;;9.85;5.28;;;;;;;1.08;66.95;95924.26;1738288;83;21269;-82
2021/04/07 03:44:00;;;;;;;10.18;6.00;;;;;;;1.10;67.07;95916.36;1737992;83;21156;-82
2021/04/07 03:46:27;;;;;;;8.38;4.28;;;;;;;1.13;67.04;95903.21;1738351;83;21128;-81
2021/04/07 03:48:54;;;;;;;10.25;5.10;;;;;;;1.14;67.09;95907.92;1738385;83;21321;-84
2021/04/07 03:51:21;;;;;;;8.03;4.37;;;;;;;1.17;67.08;95913.76;1738205;83;21128;-82
2021/04/07 03:53:50;;;;;;;7.72;4.50;;;;;;;1.19;67.09;95919.70;1736303;81;21308;-82
2021/04/07 03:56:17;;;;;;;6.87;4.70;;;;;;;1.20;67.04;95921.84;1727457;83;21205;-82
2021/04/07 03:58:44;;;;;;;10.85;5.78;;;;;;;1.17;66.60;95921.55;1727257;83;21275;-81
2021/04/07 04:01:11;;;;;;;8.15;5.10;;;;;;;1.19;66.74;95927.96;1726168;83;21399;-81
2021/04/07 04:03:39;;;;;;;6.80;4.25;;;;;;;1.18;66.67;95919.32;1711282;83;21162;-81
2021/04/07 04:06:06;;;;;;;13.50;4.78;;;;;;;1.18;66.58;95910.23;1712884;83;21148;-79
2021/04/07 04:08:33;;;;;;;7.70;4.42;;;;;;;1.18;66.58;95910.72;1711973;83;21160;-82
2021/04/07 04:11:01;;;;;;;10.23;6.22;;;;;;;1.18;66.37;95919.32;1727696;83;21118;-83
2021/04/07 04:13:28;;;;;;;8.48;4.28;;;;;;;1.15;66.36;95919.53;1714932;83;21231;-81
2021/04/07 04:15:55;;;;;;;8.53;4.42;;;;;;;1.13;66.35;95914.04;1727366;83;21325;-82
2021/04/07 04:18:22;;;;;;;5.90;4.58;;;;;;;1.15;66.42;95919.98;1727436;83;21243;-82
2021/04/07 04:20:49;;;;;;;6.25;3.87;;;;;;;1.15;66.21;95918.23;1727450;83;21275;-83
2021/04/07 04:23:17;;;;;;;8.35;3.95;;;;;;;1.18;65.88;95916.73;1727266;83;21147;-83
2021/04/07 04:25:44;;;;;;;8.03;4.40;;;;;;;1.21;65.47;95926.94;1727560;83;21267;-83
2021/04/07 04:28:12;;;;;;;8.20;4.12;;;;;;;1.23;64.98;95926.83;1727562;83;21120;-82
2021/04/07 04:30:39;;;;;;;6.25;3.45;;;;;;;1.25;64.92;95924.50;1727932;83;21158;-82
2021/04/07 04:33:07;;;;;;;7.47;3.85;;;;;;;1.29;63.60;95925.62;1727828;83;21140;-81
2021/04/07 04:35:34;;;;;;;7.47;4.05;;;;;;;1.33;63.93;95937.02;1725342;83;21254;-81
2021/04/07 04:38:01;;;;;;;6.28;3.52;;;;;;;1.36;63.33;95946.37;1727516;83;21160;-81
2021/04/07 04:40:29;;;;;;;15.20;4.33;;;;;;;1.41;63.24;95952.13;1725391;83;21258;-83
2021/04/07 04:42:56;;;;;;;11.73;4.05;;;;;;;1.45;62.62;95947.10;1727431;83;21160;-83
2021/04/07 04:45:23;;;;;;;12.53;4.78;;;;;;;1.49;62.73;95955.53;1727351;83;21164;-82
2021/04/07 04:47:51;;;;;;;8.23;3.90;;;;;;;1.53;61.98;95957.02;1727295;83;21148;-83
2021/04/07 04:50:18;;;;;;;8.05;4.37;;;;;;;1.58;61.92;95958.03;1701043;83;21318;-82
2021/04/07 04:52:46;;;;;;;8.23;4.72;;;;;;;1.62;62.04;95958.23;1696679;84;21124;-82
2021/04/07 04:55:13;;;;;;;11.78;4.78;;;;;;;1.65;61.57;95951.08;1700265;84;21184;-82
2021/04/07 04:57:41;;;;;;;9.25;4.10;;;;;;;1.68;61.51;95953.45;1719327;83;21305;-82
2021/04/07 05:00:09;;;;;;;11.45;4.78;;;;;;;1.71;61.24;95955.88;1701998;84;21156;-83
2021/04/07 05:02:36;;;;;;;12.07;4.75;;;;;;;1.78;60.98;95964.13;1703154;84;21180;-84
2021/04/07 05:05:05;;;;;;;7.92;4.15;;;;;;;1.82;61.05;95962.98;1673034;86;21163;-83
2021/04/07 05:07:32;;;;;;;7.95;4.33;;;;;;;1.90;60.78;95965.11;1732971;83;21176;-82
2021/04/07 05:10:00;;;;;;;8.25;4.50;;;;;;;1.95;60.49;95981.70;1709118;83;21711;-81
2021/04/07 05:12:27;;;;;;;12.75;4.33;;;;;;;2.00;59.75;95982.23;1723875;83;21322;-80
2021/04/07 05:14:56;;;;;;;7.20;3.65;;;;;;;2.02;58.69;95979.08;1702390;83;21172;-79
2021/04/07 05:17:24;;;;;;;9.38;5.47;;;;;;;2.08;57.31;95983.05;1722256;83;21160;-79
2021/04/07 05:19:51;;;;;;;11.05;4.53;;;;;;;2.12;59.04;95992.34;1727022;83;21172;-78
2021/04/07 05:22:19;;;;;;;5.60;3.85;;;;;;;2.17;58.89;95996.31;1731403;83;21156;-78
2021/04/07 05:24:46;;;;;;;12.60;4.20;;;;;;;2.25;57.54;96001.00;1702467;84;21163;-76
2021/04/07 05:27:15;;;;;;;6.35;3.58;;;;;;;2.30;57.43;96003.30;1701416;84;21200;-82
2021/04/07 05:29:44;;;;;;;12.65;4.45;;;;;;;2.32;56.90;96006.17;1672208;86;21306;-82
2021/04/07 05:32:11;;;;;;;8.93;4.47;;;;;;;2.38;58.07;96008.02;1731669;83;21149;-81
2021/04/07 05:34:38;;;;;;;7.03;3.87;;;;;;;2.44;57.58;96015.41;1731656;83;21186;-77
2021/04/07 05:37:06;;;;;;;9.88;5.83;;;;;;;2.50;56.96;96016.34;1731791;82;21193;-78
2021/04/07 05:39:33;;;;;;;9.60;4.47;;;;;;;2.55;57.06;96016.86;1732069;82;21766;-81
2021/04/07 05:42:00;;;;;;;8.40;4.62;;;;;;;2.60;56.89;96020.45;1707259;83;21170;-79
2021/04/07 05:44:27;;;;;;;9.28;3.98;;;;;;;2.63;57.11;96020.27;1732301;83;21284;-80
2021/04/07 05:46:56;;;;;;;6.15;3.70;;;;;;;2.73;57.60;96022.64;1732127;82;21182;-81
2021/04/07 05:49:28;;;;;;;10.08;4.85;;;;;;;2.84;57.57;96025.82;1731547;83;21169;-80
2021/04/07 05:51:55;;;;;;;8.30;4.33;;;;;;;2.90;57.22;96034.52;1731778;83;21146;-79
2021/04/07 05:54:22;;;;;;;9.75;4.42;;;;;;;3.01;56.95;96031.22;1731749;83;21635;-80
2021/04/07 05:56:49;;;;;;;12.28;8.03;;;;;;;3.03;56.51;96034.52;1769934;81;21239;-80
2021/04/07 05:59:17;;;;;;;7.97;4.97;;;;;;;3.07;56.96;96036.00;1733319;82;21147;-80
2021/04/07 06:01:45;;;;;;;11.80;5.50;;;;;;;3.13;57.30;96039.48;1770267;81;21270;-80
2021/04/07 06:04:12;;;;;;;6.05;4.22;;;;;;;3.21;57.32;96035.52;1733701;83;21111;-81
2021/04/07 06:06:42;;;;;;;6.22;3.75;;;;;;;3.26;56.54;96037.36;1770545;80;21285;-79
2021/04/07 06:09:09;;;;;;;10.35;4.10;;;;;;;3.24;55.61;96045.74;1733961;83;21108;-78
2021/04/07 06:11:37;;;;;;;13.03;4.72;;;;;;;3.17;55.08;96041.89;1770551;80;21317;-80
2021/04/07 06:14:04;;;;;;;10.50;5.58;;;;;;;3.15;55.12;96051.13;1734109;82;21143;-79
2021/04/07 06:16:31;;;;;;;7.85;4.20;;;;;;;3.16;55.39;96048.03;1770852;81;21140;-79
2021/04/07 06:18:59;;;;;;;11.33;5.10;;;;;;;3.23;55.32;96044.08;1733704;83;21131;-79
2021/04/07 06:21:27;;;;;;;8.15;3.95;;;;;;;3.36;55.58;96047.98;1770503;81;21134;-79
2021/04/07 06:23:54;;;;;;;8.95;4.00;;;;;;;3.51;55.98;96053.91;1733577;82;21592;-81
2021/04/07 06:26:21;;;;;;;8.63;4.67;;;;;;;3.65;53.23;96050.36;1770504;80;21366;-78
2021/04/07 06:28:49;;;;;;;6.72;4.53;;;;;;;3.78;54.97;96046.42;1770436;80;21247;-78
2021/04/07 06:31:16;;;;;;;9.03;4.70;;;;;;;3.98;54.91;96055.00;1733471;82;21529;-79
2021/04/07 06:33:45;;;;;;;9.95;3.87;;;;;;;4.20;53.92;96058.70;1770349;80;21369;-81
2021/04/07 06:36:12;;;;;;;12.05;4.40;;;;;;;4.36;54.14;96062.36;1734865;83;21126;-81
2021/04/07 06:38:39;;;;;;;6.67;3.75;;;;;;;4.58;53.82;96068.62;1771581;80;21270;-79
2021/04/07 06:41:09;;;;;;;14.38;4.83;;;;;;;4.75;52.63;96069.52;1735120;82;21154;-82
2021/04/07 06:43:38;;;;;;;8.70;4.70;;;;;;;4.91;53.28;96065.32;1771004;81;21301;-79
2021/04/07 06:46:10;;;;;;;10.23;4.42;;;;;;;5.05;51.79;96064.78;1734166;82;21174;-79
2021/04/07 06:48:39;;;;;;;12.20;4.30;;;;;;;5.18;51.29;96069.43;1770624;81;21140;-79
2021/04/07 06:51:08;;;;;;;7.90;4.42;;;;;;;5.30;51.37;96072.44;1733812;82;21130;-80
2021/04/07 06:53:36;;;;;;;6.50;3.85;;;;;;;5.42;51.72;96075.90;1771137;81;21155;-80
2021/04/07 06:56:08;;;;;;;11.85;4.78;;;;;;;5.54;51.29;96075.43;1733728;81;21167;-78
2021/04/07 06:58:36;;;;;;;9.85;4.28;;;;;;;5.63;50.33;96081.27;1771126;80;21282;-80
2021/04/07 07:01:04;;;;;;;6.55;4.42;;;;;;;5.76;49.05;96082.95;1733880;83;21158;-78
2021/04/07 07:03:31;;;;;;;10.00;4.30;;;;;;;5.89;47.05;96078.91;1770774;80;21289;-81
2021/04/07 07:05:59;;;;;;;8.78;4.22;;;;;;;6.00;47.43;96076.32;1733916;83;21171;-79
2021/04/07 07:08:31;;;;;;;10.05;4.47;;;;;;;6.24;48.16;96088.42;1768732;81;21136;-80
2021/04/07 07:11:15;;;;;;;8.08;4.65;;;;;;;6.41;43.96;96080.55;1733856;82;21557;-78
2021/04/07 07:13:43;;;;;;;6.25;3.98;;;;;;;6.61;48.39;96083.36;1770066;81;21156;-80
2021/04/07 07:16:13;;;;;;;6.75;4.00;;;;;;;6.71;47.32;96092.14;1734027;82;21302;-81
2021/04/07 07:18:44;;;;;;;9.83;4.42;;;;;;;6.60;45.01;96086.93;1771120;81;21305;-78
2021/04/07 07:21:16;;;;;;;8.60;4.03;;;;;;;6.52;45.59;96082.30;1734146;82;21245;-81
2021/04/07 07:23:49;;;;;;;5.35;3.60;;;;;;;6.51;43.39;96089.80;1770822;80;21151;-79
2021/04/07 07:26:20;;;;;;;9.15;4.47;;;;;;;6.91;46.94;96097.55;1733965;83;21715;-81
2021/04/07 07:28:53;;;;;;;6.90;3.80;;;;;;;6.91;46.94;96097.55;1770512;81;21281;-79
2021/04/07 07:31:29;;;;;;;9.63;4.03;;;;;;;7.27;46.42;96094.17;1733546;83;21107;-80
2021/04/07 07:33:59;;;;;;;7.90;3.25;;;;;;;7.83;45.54;96092.97;1770626;81;21159;-80
2021/04/07 07:36:29;;;;;;;6.25;3.58;;;;;;;8.76;45.00;96102.06;1733803;82;21190;-79
2021/04/07 07:38:58;;;;;;;12.23;3.98;;;;;;;8.76;45.00;96102.06;1770229;80;21277;-79
2021/04/07 07:41:38;;;;;;;11.00;3.95;;;;;;;9.15;41.60;96104.72;1733671;82;21134;-80
2021/04/07 07:44:05;;;;;;;9.90;3.55;;;;;;;9.55;42.61;96103.38;1768116;81;21278;-80
2021/04/07 07:46:35;;;;;;;6.10;3.02;;;;;;;9.86;42.15;96119.78;1733610;83;21147;-79
2021/04/07 07:49:16;;;;;;;8.15;3.52;;;;;;;10.04;37.13;96126.44;1770159;80;21541;-82
2021/04/07 07:51:46;;;;;;;9.68;2.62;;;;;;;10.07;39.57;96129.29;1733520;83;21150;-82
2021/04/07 07:54:15;;;;;;;6.50;3.27;;;;;;;9.86;34.21;96129.00;1770562;80;21266;-79
2021/04/07 07:56:43;;;;;;;6.60;3.27;;;;;;;9.69;37.58;96127.45;1733899;82;21166;-80
2021/04/07 07:59:10;;;;;;;5.80;3.00;;;;;;;9.56;35.77;96133.98;1771021;80;21104;-80
2021/04/07 08:01:50;;;;;;;7.22;3.20;;;;;;;9.49;39.40;96133.70;1733490;83;21119;-80
2021/04/07 08:04:18;;;;;;;6.70;3.17;;;;;;;9.39;38.97;96137.64;1770657;81;21827;-78
2021/04/07 08:06:46;;;;;;;7.03;3.10;;;;;;;9.21;37.10;96128.32;1733785;83;21142;-79
2021/04/07 08:09:14;;;;;;;7.10;3.47;;;;;;;9.09;36.96;96129.41;1770727;81;21282;-79
2021/04/07 08:11:46;;;;;;;7.05;3.17;;;;;;;9.19;39.02;96131.06;1734023;83;21182;-80
2021/04/07 08:14:18;;;;;;;6.30;3.00;;;;;;;9.27;38.24;96121.67;1770662;81;21264;-79
2021/04/07 08:16:47;;;;;;;10.72;3.95;;;;;;;9.27;36.39;96121.18;1733746;83;21131;-78
2021/04/07 08:19:16;;;;;;;6.45;3.85;;;;;;;9.33;35.67;96127.19;1770477;80;21525;-79
2021/04/07 08:21:46;;;;;;;5.45;2.70;;;;;;;9.16;31.04;96130.52;1734122;83;21131;-79
2021/04/07 08:24:14;;;;;;;5.53;2.85;;;;;;;8.99;31.61;96135.98;1770486;81;21116;-78
2021/04/07 08:26:44;;;;;;;4.50;2.92;;;;;;;8.57;31.29;96127.33;1733339;83;21586;-79
2021/04/07 08:29:12;;;;;;;9.28;2.80;;;;;;;8.50;30.39;96131.47;1770401;80;21711;-78
2021/04/07 08:31:43;;;;;;;4.05;2.50;;;;;;;8.65;35.43;96133.70;1733700;83;21178;-79
2021/04/07 08:34:13;;;;;;;4.40;2.77;;;;;;;8.71;33.68;96137.13;1770071;81;21277;-80
2021/04/07 08:36:44;;;;;;;8.53;2.70;;;;;;;8.68;33.42;96136.88;1733904;83;21262;-80
2021/04/07 08:39:17;;;;;;;5.58;2.45;;;;;;;8.79;33.97;96135.11;1770721;80;21175;-81
2021/04/07 08:41:47;;;;;;;6.58;2.80;;;;;;;8.97;34.72;96141.36;1770411;80;21628;-79
2021/04/07 08:44:19;;;;;;;6.70;2.58;;;;;;;8.90;31.21;96135.84;1770505;80;21297;-77
2021/04/07 08:46:52;;;;;;;4.85;2.72;;;;;;;8.90;33.57;96154.24;1733661;83;21596;-80
2021/04/07 08:52:25;;;;;;;5.65;4.25;;;;;;;8.39;28.65;96153.39;1826055;77;22733;-78
2021/04/07 08:54:59;;;;;;;4.40;2.60;;;;;;;8.05;29.29;96154.95;1829312;78;21150;-79
2021/04/07 08:57:35;;;;;;;4.67;2.55;;;;;;;8.01;31.34;96158.81;1829533;78;21262;-81
2021/04/07 09:00:15;;;;;;;3.40;1.95;;;;;;;7.91;31.06;96153.98;1829570;78;21309;-80
2021/04/07 09:02:52;;;;;;;5.97;3.08;;;;;;;7.29;28.36;96159.92;1829558;78;21128;-80
2021/04/07 09:05:30;;;;;;;4.37;2.00;;;;;;;7.02;31.27;96159.06;1829401;78;22360;-79
2021/04/07 09:07:59;;;;;;;5.17;2.90;;;;;;;6.85;32.22;96160.44;1822665;78;21292;-80
2021/04/07 09:10:45;;;;;;;4.53;2.60;;;;;;;6.54;31.73;96141.44;1829295;78;21632;-80
2021/04/07 09:13:22;;;;;;;4.90;2.55;;;;;;;6.49;31.81;96159.30;1828689;78;21160;-80
2021/04/07 09:15:55;;;;;;;8.55;2.70;;;;;;;6.38;31.83;96160.62;1827692;78;21164;-80
2021/04/07 09:18:39;;;;;;;6.55;2.25;;;;;;;6.57;31.01;96162.64;1829599;78;21123;-78
2021/04/07 09:21:20;;;;;;;4.15;2.10;;;;;;;6.65;32.81;96156.77;1829557;78;21305;-79
2021/04/07 09:23:55;;;;;;;6.72;2.58;;;;;;;6.75;33.00;96164.25;1826195;78;21298;-81
2021/04/07 09:26:26;;;;;;;5.75;2.00;;;;;;;6.76;33.05;96167.72;1829900;78;21183;-80
2021/04/07 09:28:56;;;;;;;4.53;1.92;;;;;;;6.84;31.92;96163.52;1829494;78;21289;-79
2021/04/07 09:31:30;;;;;;;4.30;2.37;;;;;;;6.65;30.32;96170.72;1829820;78;21290;-80
2021/04/07 09:33:58;;;;;;;5.40;2.35;;;;;;;6.15;30.84;96165.02;1829205;78;21282;-80
2021/04/07 09:36:32;;;;;;;8.75;3.22;;;;;;;5.97;31.92;96165.95;1829378;78;21158;-80
2021/04/07 09:39:05;;;;;;;3.98;1.90;;;;;;;5.94;31.47;96184.84;1816569;78;21320;-80
2021/04/07 09:41:35;;;;;;;6.83;3.12;;;;;;;6.03;32.40;96181.20;1796585;80;21143;-81
2021/04/07 09:44:07;;;;;;;3.60;2.37;;;;;;;6.15;32.07;96178.11;1797087;80;21148;-79
2021/04/07 09:46:35;;;;;;;3.90;2.70;;;;;;;6.28;30.52;96183.22;1797132;80;21139;-80
2021/04/07 09:49:10;;;;;;;6.58;2.40;;;;;;;6.34;30.65;96174.91;1797213;80;21143;-78
2021/04/07 09:51:41;;;;;;;4.92;2.80;;;;;;;6.54;32.29;96185.13;1797454;80;21108;-81
2021/04/07 09:54:25;;;;;;;4.97;3.00;;;;;;;6.73;31.73;96176.63;1798296;80;21709;-81
2021/04/07 09:57:00;;;;;;;4.80;3.20;;;;;;;6.84;32.24;96180.55;1798452;80;21167;-81
2021/04/07 09:59:41;;;;;;;4.67;2.85;;;;;;;6.87;31.71;96174.22;1798675;80;21286;-82
2021/04/07 10:02:16;;;;;;;5.85;2.75;;;;;;;6.91;29.66;96176.14;1798197;80;21234;-80
2021/04/07 10:04:44;;;;;;;3.45;2.27;;;;;;;7.01;31.12;96180.52;1796213;80;21112;-81
2021/04/07 10:07:18;;;;;;;4.87;3.00;;;;;;;7.07;30.49;96184.43;1797619;80;21178;-80
2021/04/07 10:09:55;;;;;;;12.20;3.33;;;;;;;6.96;31.93;96182.66;1797177;80;21132;-79
2021/04/07 10:12:27;;;;;;;5.10;3.07;;;;;;;7.07;29.62;96177.03;1796626;80;21155;-79
2021/04/07 10:15:04;;;;;;;4.17;2.77;;;;;;;7.21;31.25;96185.09;1797445;80;21307;-81
2021/04/07 10:17:36;;;;;;;4.47;2.62;;;;;;;7.37;31.30;96189.92;1797473;80;21131;-79
2021/04/07 10:20:13;;;;;;;6.72;2.80;;;;;;;7.18;28.48;96188.80;1797551;80;21131;-82
2021/04/07 10:22:43;;;;;;;5.00;2.75;;;;;;;6.78;29.25;96209.01;1797671;80;21277;-80
2021/04/07 10:25:17;;;;;;;5.83;2.77;;;;;;;6.83;29.16;96202.45;1797542;80;21167;-81
2021/04/07 10:27:44;;;;;;;5.92;3.42;;;;;;;6.90;30.57;96199.37;1797611;80;21133;-80
2021/04/07 10:30:18;;;;;;;9.08;3.30;;;;;;;6.92;30.48;96202.67;1797751;80;21158;-79
2021/04/07 10:32:59;;;;;;;2.90;1.67;;;;;;;6.87;30.89;96198.66;1797612;80;21289;-82
2021/04/07 10:35:38;;;;;;;4.00;3.02;;;;;;;6.73;30.03;96217.23;1796995;80;21217;-81
2021/04/07 10:38:10;;;;;;;6.45;2.92;;;;;;;6.54;30.71;96215.23;1795510;80;21183;-80
2021/04/07 10:40:41;;;;;;;4.12;2.58;;;;;;;6.59;30.98;96208.33;1797478;80;21135;-80
2021/04/07 10:43:18;;;;;;;4.15;2.42;;;;;;;6.71;30.71;96204.75;1797362;80;21112;-81
2021/04/07 10:46:04;;;;;;;10.88;3.35;;;;;;;6.55;28.04;96211.17;1796694;80;21624;-80
2021/04/07 10:48:34;;;;;;;6.75;2.72;;;;;;;6.55;28.04;96211.17;1796898;80;21139;-80
2021/04/07 10:51:03;;;;;;;7.35;3.17;;;;;;;6.51;28.71;96219.39;1797217;80;21112;-79
2021/04/07 10:53:37;;;;;;;3.87;2.45;;;;;;;6.51;28.71;96219.39;1797196;80;21565;-79
2021/04/07 10:56:20;;;;;;;7.25;2.90;;;;;;;6.57;28.97;96225.48;1797139;80;21142;-80
2021/04/07 10:59:00;;;;;;;5.60;2.70;;;;;;;6.68;29.97;96225.94;1796962;80;21127;-79
2021/04/07 11:01:35;;;;;;;6.05;2.72;;;;;;;6.71;27.98;96217.36;1797490;80;21549;-79
2021/04/07 11:04:18;;;;;;;4.20;2.45;;;;;;;6.81;28.69;96217.48;1797417;80;21131;-80
2021/04/07 11:06:52;;;;;;;6.42;2.67;;;;;;;6.90;28.92;96225.08;1797977;80;21186;-79
2021/04/07 11:09:23;;;;;;;4.42;2.70;;;;;;;6.97;27.48;96226.73;1797873;80;21151;-79
2021/04/07 11:11:51;;;;;;;6.75;2.70;;;;;;;7.15;28.86;96239.68;1797284;80;21151;-79
2021/04/07 11:14:19;;;;;;;6.45;2.92;;;;;;;7.33;29.43;96236.03;1797541;80;21127;-81
2021/04/07 11:16:59;;;;;;;5.85;3.40;;;;;;;7.61;30.24;96235.09;1797550;80;21581;-79
2021/04/07 11:19:39;;;;;;;4.35;2.80;;;;;;;7.83;29.50;96241.70;1797572;80;21147;-80
2021/04/07 11:22:08;;;;;;;5.60;3.30;;;;;;;7.92;27.48;96237.82;1797203;80;21135;-80
2021/04/07 11:24:37;;;;;;;9.48;2.37;;;;;;;7.93;28.94;96244.73;1797630;80;21104;-81
2021/04/07 11:27:08;;;;;;;3.22;2.42;;;;;;;8.13;29.30;96239.61;1797673;80;21168;-78
2021/04/07 11:29:37;;;;;;;6.95;2.55;;;;;;;8.18;29.26;96240.54;1797665;80;21135;-82
2021/04/07 11:32:08;;;;;;;5.75;3.00;;;;;;;8.18;29.26;96240.54;1797471;80;21143;-79
2021/04/07 11:35:23;;;;;;;4.22;2.65;;;;;;;8.26;29.21;96248.11;1793675;80;21127;-80
2021/04/07 11:37:24;;;;;;;6.12;2.90;;;;;;;8.25;27.84;96245.62;1735043;82;21170;-78
2021/04/07 11:39:54;;;;;;;3.83;2.65;;;;;;;8.15;28.56;96246.04;1755379;82;21139;-80
2021/04/07 11:42:24;;;;;;;5.80;2.60;;;;;;;7.95;28.69;96255.09;1757186;81;21728;-79
2021/04/07 11:44:50;;;;;;;4.12;2.85;;;;;;;7.64;27.66;96253.22;1756651;81;21556;-78
2021/04/07 11:47:18;;;;;;;2.95;2.05;;;;;;;7.41;27.22;96260.34;1756411;81;21268;-77
2021/04/07 11:49:45;;;;;;;6.25;3.17;;;;;;;7.12;27.24;96252.20;1756139;82;21138;-77
2021/04/07 11:52:14;;;;;;;5.03;2.47;;;;;;;6.84;27.59;96266.17;1752234;80;21147;-78
2021/04/07 11:54:41;;;;;;;4.17;2.10;;;;;;;6.74;28.18;96270.47;1751968;79;21152;-79
2021/04/07 11:57:09;;;;;;;4.70;2.80;;;;;;;6.82;27.42;96274.13;1815326;79;21298;-80